sensor_id;sensor_type;location;lat;lon;timestamp;pressure;altitude;pressure_sealevel;temperature;humidity
8515;BME280;4295;51.024;7.000;2023-01-10T00:00:45;140316.91;;;-17.72;100.00
8515;BME280;4295;51.024;7.000;2023-01-10T00:03:10;140289.59;;;-17.83;100.00
8515;BME280;4295;51.024;7.000;2023-01-10T00:05:37;140275.94;;;-17.89;100.00
8515;BME280;4295;51.024;7.000;2023-01-10T00:08:04;140299.56;;;-17.79;100.00
8515;BME280;4295;51.024;7.000;2023-01-10T00:10:30;140284.66;;;-17.85;100.00
8515;BME280;4295;51.024;7.000;2023-01-10T00:12:56;140321.91;;;-17.70;100.00
8515;BME280;4295;51.024;7.000;2023-01-10T00:15:41;140303.25;;;-17.78;100.00
8515;BME280;4295;51.024;7.000;2023-01-10T00:18:06;140295.81;;;-17.81;100.00
8515;BME280;4295;51.024;7.000;2023-01-10T00:20:32;140304.50;;;-17.77;100.00
8515;BME280;4295;51.024;7.000;2023-01-10T00:22:57;140302.00;;;-17.78;100.00
8515;BME280;4295;51.024;7.000;2023-01-10T00:25:23;140300.81;;;-17.79;100.00
8515;BME280;4295;51.024;7.000;2023-01-10T00:27:52;140297.06;;;-17.80;100.00
8515;BME280;4295;51.024;7.000;2023-01-10T00:30:39;140282.16;;;-17.86;100.00
8515;BME280;4295;51.024;7.000;2023-01-10T00:33:05;140278.44;;;-17.88;100.00
8515;BME280;4295;51.024;7.000;2023-01-10T00:35:31;140283.41;;;-17.86;100.00
8515;BME280;4295;51.024;7.000;2023-01-10T00:37:57;140278.44;;;-17.88;100.00
8515;BME280;4295;51.024;7.000;2023-01-10T00:40:30;140272.19;;;-17.90;100.00
8515;BME280;4295;51.024;7.000;2023-01-10T00:42:56;140277.19;;;-17.88;100.00
8515;BME280;4295;51.024;7.000;2023-01-10T00:45:40;140278.44;;;-17.88;100.00
8515;BME280;4295;51.024;7.000;2023-01-10T00:48:05;140273.47;;;-17.90;100.00
8515;BME280;4295;51.024;7.000;2023-01-10T00:50:30;140256.09;;;-17.97;100.00
8515;BME280;4295;51.024;7.000;2023-01-10T00:52:56;140274.72;;;-17.89;100.00
8515;BME280;4295;51.024;7.000;2023-01-10T00:55:21;140257.34;;;-17.96;100.00
8515;BME280;4295;51.024;7.000;2023-01-10T00:57:46;140295.81;;;-17.81;100.00
8515;BME280;4295;51.024;7.000;2023-01-10T01:00:12;140290.84;;;-17.83;100.00
8515;BME280;4295;51.024;7.000;2023-01-10T01:02:37;140284.66;;;-17.85;100.00
8515;BME280;4295;51.024;7.000;2023-01-10T01:05:03;140295.81;;;-17.81;100.00
8515;BME280;4295;51.024;7.000;2023-01-10T01:07:29;140290.84;;;-17.83;100.00
8515;BME280;4295;51.024;7.000;2023-01-10T01:09:54;140272.19;;;-17.90;100.00
8515;BME280;4295;51.024;7.000;2023-01-10T01:12:38;140284.66;;;-17.85;100.00
8515;BME280;4295;51.024;7.000;2023-01-10T01:15:04;140275.94;;;-17.89;100.00
8515;BME280;4295;51.024;7.000;2023-01-10T01:17:30;140298.31;;;-17.80;100.00
8515;BME280;4295;51.024;7.000;2023-01-10T01:19:55;140293.34;;;-17.82;100.00
8515;BME280;4295;51.024;7.000;2023-01-10T01:22:20;140293.34;;;-17.82;100.00
8515;BME280;4295;51.024;7.000;2023-01-10T01:24:46;140310.69;;;-17.75;100.00
8515;BME280;4295;51.024;7.000;2023-01-10T01:27:11;140269.75;;;-17.91;100.00
8515;BME280;4295;51.024;7.000;2023-01-10T01:29:36;140305.75;;;-17.77;100.00
8515;BME280;4295;51.024;7.000;2023-01-10T01:32:02;140298.31;;;-17.80;100.00
8515;BME280;4295;51.024;7.000;2023-01-10T01:34:27;140321.91;;;-17.70;100.00
8515;BME280;4295;51.024;7.000;2023-01-10T01:36:53;140320.66;;;-17.70;100.00
8515;BME280;4295;51.024;7.000;2023-01-10T01:39:21;140309.47;;;-17.75;100.00
8515;BME280;4295;51.024;7.000;2023-01-10T01:41:46;140295.81;;;-17.81;100.00
8515;BME280;4295;51.024;7.000;2023-01-10T01:44:29;140273.47;;;-17.90;100.00
8515;BME280;4295;51.024;7.000;2023-01-10T01:47:06;140279.66;;;-17.87;100.00
8515;BME280;4295;51.024;7.000;2023-01-10T01:49:36;140268.50;;;-17.92;100.00
8515;BME280;4295;51.024;7.000;2023-01-10T01:52:07;140289.59;;;-17.83;100.00
8515;BME280;4295;51.024;7.000;2023-01-10T01:54:34;140297.06;;;-17.80;100.00
8515;BME280;4295;51.024;7.000;2023-01-10T01:57:03;140323.09;;;-17.69;100.00
8515;BME280;4295;51.024;7.000;2023-01-10T01:59:36;140316.91;;;-17.72;100.00
8515;BME280;4295;51.024;7.000;2023-01-10T02:02:09;140320.66;;;-17.70;100.00
8515;BME280;4295;51.024;7.000;2023-01-10T02:04:49;140307.00;;;-17.76;100.00
8515;BME280;4295;51.024;7.000;2023-01-10T02:07:16;140304.50;;;-17.77;100.00
8515;BME280;4295;51.024;7.000;2023-01-10T02:09:49;140272.19;;;-17.90;100.00
8515;BME280;4295;51.024;7.000;2023-01-10T02:12:16;140289.59;;;-17.83;100.00
8515;BME280;4295;51.024;7.000;2023-01-10T02:14:42;140285.91;;;-17.85;100.00
8515;BME280;4295;51.024;7.000;2023-01-10T02:17:10;140275.94;;;-17.89;100.00
8515;BME280;4295;51.024;7.000;2023-01-10T02:33:40;140227.56;;;-18.08;100.00
8515;BME280;4295;51.024;7.000;2023-01-10T02:39:16;140231.25;;;-18.07;100.00
8515;BME280;4295;51.024;7.000;2023-01-10T02:41:51;140233.75;;;-18.06;100.00
8515;BME280;4295;51.024;7.000;2023-01-10T02:45:14;140235.00;;;-18.05;100.00
8515;BME280;4295;51.024;7.000;2023-01-10T02:47:13;140253.59;;;-17.98;100.00
8515;BME280;4295;51.024;7.000;2023-01-10T02:49:47;140246.16;;;-18.01;100.00
8515;BME280;4295;51.024;7.000;2023-01-10T02:52:17;140247.41;;;-18.00;100.00
8515;BME280;4295;51.024;7.000;2023-01-10T02:54:44;140248.66;;;-18.00;100.00
8515;BME280;4295;51.024;7.000;2023-01-10T03:08:36;140237.47;;;-18.04;100.00
8515;BME280;4295;51.024;7.000;2023-01-10T03:11:06;140239.94;;;-18.03;100.00
8515;BME280;4295;51.024;7.000;2023-01-10T03:13:56;140237.47;;;-18.04;100.00
8515;BME280;4295;51.024;7.000;2023-01-10T03:16:28;140249.91;;;-17.99;100.00
8515;BME280;4295;51.024;7.000;2023-01-10T03:19:01;140220.09;;;-18.11;100.00
8515;BME280;4295;51.024;7.000;2023-01-10T03:21:29;140238.72;;;-18.04;100.00
8515;BME280;4295;51.024;7.000;2023-01-10T03:23:58;140230.00;;;-18.07;100.00
8515;BME280;4295;51.024;7.000;2023-01-10T03:26:46;140223.81;;;-18.10;100.00
8515;BME280;4295;51.024;7.000;2023-01-10T03:29:18;140192.75;;;-18.22;100.00
8515;BME280;4295;51.024;7.000;2023-01-10T03:31:50;140174.16;;;-18.30;100.00
8515;BME280;4295;51.024;7.000;2023-01-10T03:34:16;140169.22;;;-18.32;100.00
8515;BME280;4295;51.024;7.000;2023-01-10T03:39:50;140189.06;;;-18.24;100.00
8515;BME280;4295;51.024;7.000;2023-01-10T03:45:52;140175.41;;;-18.29;100.00
8515;BME280;4295;51.024;7.000;2023-01-10T03:48:20;140166.72;;;-18.33;100.00
8515;BME280;4295;51.024;7.000;2023-01-10T03:50:48;140163.03;;;-18.35;100.00
8515;BME280;4295;51.024;7.000;2023-01-10T03:53:15;140156.78;;;-18.37;100.00
8515;BME280;4295;51.024;7.000;2023-01-10T03:55:41;140134.50;;;-18.46;100.00
8515;BME280;4295;51.024;7.000;2023-01-10T03:58:08;140145.63;;;-18.42;100.00
8515;BME280;4295;51.024;7.000;2023-01-10T04:00:33;140134.50;;;-18.46;100.00
8515;BME280;4295;51.024;7.000;2023-01-10T04:02:59;140132.00;;;-18.47;100.00
8515;BME280;4295;51.024;7.000;2023-01-10T04:05:24;140119.66;;;-18.52;100.00
8515;BME280;4295;51.024;7.000;2023-01-10T04:07:50;140110.97;;;-18.56;100.00
8515;BME280;4295;51.024;7.000;2023-01-10T04:10:15;140091.13;;;-18.64;100.00
8515;BME280;4295;51.024;7.000;2023-01-10T04:12:41;140056.34;;;-18.78;100.00
8515;BME280;4295;51.024;7.000;2023-01-10T04:15:06;140057.59;;;-18.77;100.00
8515;BME280;4295;51.024;7.000;2023-01-10T04:17:32;140066.28;;;-18.74;100.00
8515;BME280;4295;51.024;7.000;2023-01-10T04:19:57;140053.91;;;-18.79;100.00
8515;BME280;4295;51.024;7.000;2023-01-10T04:22:23;140045.22;;;-18.82;100.00
8515;BME280;4295;51.024;7.000;2023-01-10T04:24:48;140043.97;;;-18.83;100.00
8515;BME280;4295;51.024;7.000;2023-01-10T04:27:16;140076.25;;;-18.70;100.00
8515;BME280;4295;51.024;7.000;2023-01-10T04:29:42;140082.44;;;-18.67;100.00
8515;BME280;4295;51.024;7.000;2023-01-10T04:32:07;140092.31;;;-18.63;100.00
8515;BME280;4295;51.024;7.000;2023-01-10T04:34:32;140086.13;;;-18.66;100.00
8515;BME280;4295;51.024;7.000;2023-01-10T04:36:58;140053.91;;;-18.79;100.00
8515;BME280;4295;51.024;7.000;2023-01-10T04:39:23;140070.03;;;-18.72;100.00
8515;BME280;4295;51.024;7.000;2023-01-10T04:41:48;140104.75;;;-18.58;100.00
8515;BME280;4295;51.024;7.000;2023-01-10T04:44:14;140108.47;;;-18.57;100.00
8515;BME280;4295;51.024;7.000;2023-01-10T04:46:39;140106.00;;;-18.58;100.00
8515;BME280;4295;51.024;7.000;2023-01-10T04:49:04;140122.09;;;-18.51;100.00
8515;BME280;4295;51.024;7.000;2023-01-10T04:51:30;140112.22;;;-18.55;100.00
8515;BME280;4295;51.024;7.000;2023-01-10T04:53:56;140127.09;;;-18.49;100.00
8515;BME280;4295;51.024;7.000;2023-01-10T04:56:21;140109.72;;;-18.56;100.00
8515;BME280;4295;51.024;7.000;2023-01-10T04:58:48;140119.66;;;-18.52;100.00
8515;BME280;4295;51.024;7.000;2023-01-10T05:01:19;140128.31;;;-18.49;100.00
8515;BME280;4295;51.024;7.000;2023-01-10T05:03:49;140133.25;;;-18.47;100.00
8515;BME280;4295;51.024;7.000;2023-01-10T05:06:15;140148.13;;;-18.41;100.00
8515;BME280;4295;51.024;7.000;2023-01-10T05:08:41;140125.84;;;-18.50;100.00
8515;BME280;4295;51.024;7.000;2023-01-10T05:11:06;140136.94;;;-18.45;100.00
8515;BME280;4295;51.024;7.000;2023-01-10T05:13:32;140109.72;;;-18.56;100.00
8515;BME280;4295;51.024;7.000;2023-01-10T05:15:58;140134.50;;;-18.46;100.00
8515;BME280;4295;51.024;7.000;2023-01-10T05:18:25;140130.75;;;-18.48;100.00
8515;BME280;4295;51.024;7.000;2023-01-10T05:20:51;140115.91;;;-18.54;100.00
8515;BME280;4295;51.024;7.000;2023-01-10T05:23:16;140118.41;;;-18.53;100.00
8515;BME280;4295;51.024;7.000;2023-01-10T05:25:42;140108.47;;;-18.57;100.00
8515;BME280;4295;51.024;7.000;2023-01-10T05:28:07;140104.75;;;-18.58;100.00
8515;BME280;4295;51.024;7.000;2023-01-10T05:30:33;140118.41;;;-18.53;100.00
8515;BME280;4295;51.024;7.000;2023-01-10T05:32:58;140128.31;;;-18.49;100.00
8515;BME280;4295;51.024;7.000;2023-01-10T05:35:24;140109.72;;;-18.56;100.00
8515;BME280;4295;51.024;7.000;2023-01-10T05:37:49;140117.16;;;-18.53;100.00
8515;BME280;4295;51.024;7.000;2023-01-10T05:40:15;140102.25;;;-18.59;100.00
8515;BME280;4295;51.024;7.000;2023-01-10T05:42:40;140091.13;;;-18.64;100.00
8515;BME280;4295;51.024;7.000;2023-01-10T05:45:06;140094.81;;;-18.62;100.00
8515;BME280;4295;51.024;7.000;2023-01-10T05:47:31;140076.25;;;-18.70;100.00
8515;BME280;4295;51.024;7.000;2023-01-10T05:49:57;140079.94;;;-18.68;100.00
8515;BME280;4295;51.024;7.000;2023-01-10T05:52:22;140084.88;;;-18.66;100.00
8515;BME280;4295;51.024;7.000;2023-01-10T05:54:47;140099.75;;;-18.60;100.00
8515;BME280;4295;51.024;7.000;2023-01-10T05:57:13;140061.34;;;-18.76;100.00
8515;BME280;4295;51.024;7.000;2023-01-10T05:59:38;140065.06;;;-18.74;100.00
8515;BME280;4295;51.024;7.000;2023-01-10T06:02:03;140036.53;;;-18.86;100.00
8515;BME280;4295;51.024;7.000;2023-01-10T06:04:29;140035.28;;;-18.86;100.00
8515;BME280;4295;51.024;7.000;2023-01-10T06:06:54;139993.13;;;-19.04;100.00
8515;BME280;4295;51.024;7.000;2023-01-10T06:09:19;139990.69;;;-19.05;100.00
8515;BME280;4295;51.024;7.000;2023-01-10T06:11:45;139994.38;;;-19.03;100.00
8515;BME280;4295;51.024;7.000;2023-01-10T06:14:10;139977.00;;;-19.10;100.00
8515;BME280;4295;51.024;7.000;2023-01-10T06:16:35;140000.56;;;-19.01;100.00
8515;BME280;4295;51.024;7.000;2023-01-10T06:19:01;139970.81;;;-19.13;100.00
8515;BME280;4295;51.024;7.000;2023-01-10T06:21:26;139977.00;;;-19.10;100.00
8515;BME280;4295;51.024;7.000;2023-01-10T06:23:51;140004.31;;;-18.99;100.00
8515;BME280;4295;51.024;7.000;2023-01-10T06:26:17;139995.63;;;-19.03;100.00
8515;BME280;4295;51.024;7.000;2023-01-10T06:28:43;140008.00;;;-18.98;100.00
8515;BME280;4295;51.024;7.000;2023-01-10T06:31:08;140030.34;;;-18.88;100.00
8515;BME280;4295;51.024;7.000;2023-01-10T06:33:34;140047.72;;;-18.81;100.00
8515;BME280;4295;51.024;7.000;2023-01-10T06:36:00;140056.34;;;-18.78;100.00
8515;BME280;4295;51.024;7.000;2023-01-10T06:38:25;140047.72;;;-18.81;100.00
8515;BME280;4295;51.024;7.000;2023-01-10T06:40:51;140022.88;;;-18.92;100.00
8515;BME280;4295;51.024;7.000;2023-01-10T06:43:16;140032.81;;;-18.87;100.00
8515;BME280;4295;51.024;7.000;2023-01-10T06:45:41;140025.38;;;-18.91;100.00
8515;BME280;4295;51.024;7.000;2023-01-10T06:48:07;140032.81;;;-18.87;100.00
8515;BME280;4295;51.024;7.000;2023-01-10T06:50:32;140053.91;;;-18.79;100.00
8515;BME280;4295;51.024;7.000;2023-01-10T06:53:03;140063.81;;;-18.75;100.00
8515;BME280;4295;51.024;7.000;2023-01-10T06:55:29;140067.53;;;-18.73;100.00
8515;BME280;4295;51.024;7.000;2023-01-10T06:58:01;140034.03;;;-18.87;100.00
8515;BME280;4295;51.024;7.000;2023-01-10T07:00:28;140040.28;;;-18.84;100.00
8515;BME280;4295;51.024;7.000;2023-01-10T07:02:58;140006.75;;;-18.98;100.00
8515;BME280;4295;51.024;7.000;2023-01-10T07:05:23;140024.13;;;-18.91;100.00
8515;BME280;4295;51.024;7.000;2023-01-10T07:07:49;140026.63;;;-18.90;100.00
8515;BME280;4295;51.024;7.000;2023-01-10T07:10:15;140029.09;;;-18.89;100.00
8515;BME280;4295;51.024;7.000;2023-01-10T07:12:40;140026.63;;;-18.90;100.00
8515;BME280;4295;51.024;7.000;2023-01-10T07:15:06;140022.88;;;-18.92;100.00
8515;BME280;4295;51.024;7.000;2023-01-10T07:17:31;140015.44;;;-18.95;100.00
8515;BME280;4295;51.024;7.000;2023-01-10T07:19:57;140014.19;;;-18.95;100.00
8515;BME280;4295;51.024;7.000;2023-01-10T07:22:22;140032.81;;;-18.87;100.00
8515;BME280;4295;51.024;7.000;2023-01-10T07:24:47;140014.19;;;-18.95;100.00
8515;BME280;4295;51.024;7.000;2023-01-10T07:27:13;140035.28;;;-18.86;100.00
8515;BME280;4295;51.024;7.000;2023-01-10T07:29:38;140047.72;;;-18.81;100.00
8515;BME280;4295;51.024;7.000;2023-01-10T07:32:04;140045.22;;;-18.82;100.00
8515;BME280;4295;51.024;7.000;2023-01-10T07:34:30;140035.28;;;-18.86;100.00
8515;BME280;4295;51.024;7.000;2023-01-10T07:36:55;140030.34;;;-18.88;100.00
8515;BME280;4295;51.024;7.000;2023-01-10T07:39:20;140036.53;;;-18.86;100.00
8515;BME280;4295;51.024;7.000;2023-01-10T07:41:46;140029.09;;;-18.89;100.00
8515;BME280;4295;51.024;7.000;2023-01-10T07:44:12;140070.03;;;-18.72;100.00
8515;BME280;4295;51.024;7.000;2023-01-10T07:46:38;140070.03;;;-18.72;100.00
8515;BME280;4295;51.024;7.000;2023-01-10T07:49:03;140079.94;;;-18.68;100.00
8515;BME280;4295;51.024;7.000;2023-01-10T07:51:28;140084.88;;;-18.66;100.00
8515;BME280;4295;51.024;7.000;2023-01-10T07:53:54;140084.88;;;-18.66;100.00
8515;BME280;4295;51.024;7.000;2023-01-10T07:56:19;140093.56;;;-18.63;100.00
8515;BME280;4295;51.024;7.000;2023-01-10T07:58:44;140083.69;;;-18.67;100.00
8515;BME280;4295;51.024;7.000;2023-01-10T08:01:10;140107.22;;;-18.57;100.00
8515;BME280;4295;51.024;7.000;2023-01-10T08:03:35;140094.81;;;-18.62;100.00
8515;BME280;4295;51.024;7.000;2023-01-10T08:06:03;140092.31;;;-18.63;100.00
8515;BME280;4295;51.024;7.000;2023-01-10T08:08:30;140091.13;;;-18.64;100.00
8515;BME280;4295;51.024;7.000;2023-01-10T08:10:56;140051.41;;;-18.80;100.00
8515;BME280;4295;51.024;7.000;2023-01-10T08:13:23;140055.16;;;-18.78;100.00
8515;BME280;4295;51.024;7.000;2023-01-10T08:15:49;140025.38;;;-18.91;100.00
8515;BME280;4295;51.024;7.000;2023-01-10T08:18:16;140046.47;;;-18.82;100.00
8515;BME280;4295;51.024;7.000;2023-01-10T08:20:41;140056.34;;;-18.78;100.00
8515;BME280;4295;51.024;7.000;2023-01-10T08:23:07;140024.13;;;-18.91;100.00
8515;BME280;4295;51.024;7.000;2023-01-10T08:25:32;140031.59;;;-18.88;100.00
8515;BME280;4295;51.024;7.000;2023-01-10T08:27:57;140037.78;;;-18.85;100.00
8515;BME280;4295;51.024;7.000;2023-01-10T08:30:23;140048.91;;;-18.81;100.00
8515;BME280;4295;51.024;7.000;2023-01-10T08:32:48;140061.34;;;-18.76;100.00
8515;BME280;4295;51.024;7.000;2023-01-10T08:35:13;140061.34;;;-18.76;100.00
8515;BME280;4295;51.024;7.000;2023-01-10T08:37:39;140097.31;;;-18.61;100.00
8515;BME280;4295;51.024;7.000;2023-01-10T08:40:05;140068.78;;;-18.73;100.00
8515;BME280;4295;51.024;7.000;2023-01-10T08:42:30;140055.16;;;-18.78;100.00
8515;BME280;4295;51.024;7.000;2023-01-10T08:44:56;140051.41;;;-18.80;100.00
8515;BME280;4295;51.024;7.000;2023-01-10T08:47:22;140060.09;;;-18.76;100.00
8515;BME280;4295;51.024;7.000;2023-01-10T08:49:47;140073.75;;;-18.71;100.00
8515;BME280;4295;51.024;7.000;2023-01-10T08:52:14;140057.59;;;-18.77;100.00
8515;BME280;4295;51.024;7.000;2023-01-10T08:54:39;140015.44;;;-18.95;100.00
8515;BME280;4295;51.024;7.000;2023-01-10T08:57:05;140060.09;;;-18.76;100.00
8515;BME280;4295;51.024;7.000;2023-01-10T08:59:30;140078.69;;;-18.69;100.00
8515;BME280;4295;51.024;7.000;2023-01-10T09:01:55;140076.25;;;-18.70;100.00
8515;BME280;4295;51.024;7.000;2023-01-10T09:04:23;140046.47;;;-18.82;100.00
8515;BME280;4295;51.024;7.000;2023-01-10T09:06:48;140083.69;;;-18.67;100.00
8515;BME280;4295;51.024;7.000;2023-01-10T09:09:14;140082.44;;;-18.67;100.00
8515;BME280;4295;51.024;7.000;2023-01-10T09:11:39;140066.28;;;-18.74;100.00
8515;BME280;4295;51.024;7.000;2023-01-10T09:14:04;140093.56;;;-18.63;100.00
8515;BME280;4295;51.024;7.000;2023-01-10T09:16:31;140102.25;;;-18.59;100.00
8515;BME280;4295;51.024;7.000;2023-01-10T09:18:56;140128.31;;;-18.49;100.00
8515;BME280;4295;51.024;7.000;2023-01-10T09:21:22;140107.22;;;-18.57;100.00
8515;BME280;4295;51.024;7.000;2023-01-10T09:23:47;140103.50;;;-18.59;100.00
8515;BME280;4295;51.024;7.000;2023-01-10T09:26:12;140124.59;;;-18.50;100.00
8515;BME280;4295;51.024;7.000;2023-01-10T09:28:38;140133.25;;;-18.47;100.00
8515;BME280;4295;51.024;7.000;2023-01-10T09:31:03;140141.94;;;-18.43;100.00
8515;BME280;4295;51.024;7.000;2023-01-10T09:33:29;140164.22;;;-18.34;100.00
8515;BME280;4295;51.024;7.000;2023-01-10T09:35:58;140187.81;;;-18.24;100.00
8515;BME280;4295;51.024;7.000;2023-01-10T09:38:24;140217.59;;;-18.12;100.00
8515;BME280;4295;51.024;7.000;2023-01-10T09:51:49;140392.63;;;-17.41;100.00
8515;BME280;4295;51.024;7.000;2023-01-10T09:56:46;140418.69;;;-17.31;100.00
8515;BME280;4295;51.024;7.000;2023-01-10T09:59:18;140427.41;;;-17.27;100.00
8515;BME280;4295;51.024;7.000;2023-01-10T10:01:46;140451.03;;;-17.18;100.00
8515;BME280;4295;51.024;7.000;2023-01-10T10:04:41;140465.94;;;-17.11;100.00
8515;BME280;4295;51.024;7.000;2023-01-10T10:07:13;140462.19;;;-17.13;100.00
8515;BME280;4295;51.024;7.000;2023-01-10T10:09:39;140484.56;;;-17.04;100.00
8515;BME280;4295;51.024;7.000;2023-01-10T10:20:25;140605.09;;;-16.55;100.00
8515;BME280;4295;51.024;7.000;2023-01-10T10:36:58;140656.03;;;-16.34;100.00
8515;BME280;4295;51.024;7.000;2023-01-10T10:39:43;140670.97;;;-16.28;100.00
8515;BME280;4295;51.024;7.000;2023-01-10T10:42:14;140703.31;;;-16.15;100.00
8515;BME280;4295;51.024;7.000;2023-01-10T10:44:51;140702.06;;;-16.16;100.00
8515;BME280;4295;51.024;7.000;2023-01-10T10:47:19;140695.88;;;-16.18;100.00
8515;BME280;4295;51.024;7.000;2023-01-10T10:52:25;140694.63;;;-16.19;100.00
8515;BME280;4295;51.024;7.000;2023-01-10T10:54:52;140741.91;;;-15.99;100.00
8515;BME280;4295;51.024;7.000;2023-01-10T10:57:20;140795.38;;;-15.78;100.00
8515;BME280;4295;51.024;7.000;2023-01-10T10:59:47;140805.34;;;-15.74;100.00
8515;BME280;4295;51.024;7.000;2023-01-10T11:04:50;140795.38;;;-15.78;100.00
8515;BME280;4295;51.024;7.000;2023-01-10T11:07:17;140775.47;;;-15.86;100.00
8515;BME280;4295;51.024;7.000;2023-01-10T11:09:43;140821.53;;;-15.67;100.00
8515;BME280;4295;51.024;7.000;2023-01-10T11:12:30;140801.59;;;-15.75;100.00
8515;BME280;4295;51.024;7.000;2023-01-10T11:14:57;140763.06;;;-15.91;100.00
8515;BME280;4295;51.024;7.000;2023-01-10T11:17:30;140815.28;;;-15.70;100.00
8515;BME280;4295;51.024;7.000;2023-01-10T11:22:23;140743.13;;;-15.99;100.00
8515;BME280;4295;51.024;7.000;2023-01-10T11:24:52;140738.16;;;-16.01;100.00
8515;BME280;4295;51.024;7.000;2023-01-10T11:27:23;140725.72;;;-16.06;100.00
8515;BME280;4295;51.024;7.000;2023-01-10T11:29:59;140728.19;;;-16.05;100.00
8515;BME280;4295;51.024;7.000;2023-01-10T11:34:56;140741.91;;;-15.99;100.00
8515;BME280;4295;51.024;7.000;2023-01-10T11:37:29;140720.72;;;-16.08;100.00
8515;BME280;4295;51.024;7.000;2023-01-10T11:42:40;140755.59;;;-15.94;100.00
8515;BME280;4295;51.024;7.000;2023-01-10T11:47:46;140760.56;;;-15.92;100.00
8515;BME280;4295;51.024;7.000;2023-01-10T11:50:21;140774.22;;;-15.86;100.00
8515;BME280;4295;51.024;7.000;2023-01-10T11:52:47;140782.94;;;-15.83;100.00
8515;BME280;4295;51.024;7.000;2023-01-10T11:55:24;140760.56;;;-15.92;100.00
8515;BME280;4295;51.024;7.000;2023-01-10T11:58:01;140766.75;;;-15.89;100.00
8515;BME280;4295;51.024;7.000;2023-01-10T12:00:45;140745.63;;;-15.98;100.00
8515;BME280;4295;51.024;7.000;2023-01-10T12:03:40;140789.16;;;-15.80;100.00
8515;BME280;4295;51.024;7.000;2023-01-10T12:06:14;140789.16;;;-15.80;100.00
8515;BME280;4295;51.024;7.000;2023-01-10T12:08:40;140805.34;;;-15.74;100.00
8515;BME280;4295;51.024;7.000;2023-01-10T12:13:49;140804.09;;;-15.74;100.00
8515;BME280;4295;51.024;7.000;2023-01-10T12:18:46;140845.16;;;-15.58;100.00
8515;BME280;4295;51.024;7.000;2023-01-10T12:21:15;140811.56;;;-15.71;100.00
8515;BME280;4295;51.024;7.000;2023-01-10T12:23:44;140792.88;;;-15.79;100.00
8515;BME280;4295;51.024;7.000;2023-01-10T12:26:11;140779.19;;;-15.84;100.00
8515;BME280;4295;51.024;7.000;2023-01-10T12:28:45;140718.25;;;-16.09;100.00
8515;BME280;4295;51.024;7.000;2023-01-10T12:31:13;140700.81;;;-16.16;100.00
8515;BME280;4295;51.024;7.000;2023-01-10T12:33:50;140695.88;;;-16.18;100.00
8515;BME280;4295;51.024;7.000;2023-01-10T12:39:23;140679.69;;;-16.25;100.00
8515;BME280;4295;51.024;7.000;2023-01-10T12:42:01;140704.59;;;-16.15;100.00
8515;BME280;4295;51.024;7.000;2023-01-10T12:44:51;140726.97;;;-16.06;100.00
8515;BME280;4295;51.024;7.000;2023-01-10T12:47:25;140740.66;;;-16.00;100.00
8515;BME280;4295;51.024;7.000;2023-01-10T12:50:06;140714.50;;;-16.11;100.00
8515;BME280;4295;51.024;7.000;2023-01-10T12:53:03;140700.81;;;-16.16;100.00
8515;BME280;4295;51.024;7.000;2023-01-10T12:55:42;140715.75;;;-16.10;100.00
8515;BME280;4295;51.024;7.000;2023-01-10T12:58:20;140652.34;;;-16.36;100.00
8515;BME280;4295;51.024;7.000;2023-01-10T13:00:57;140657.31;;;-16.34;100.00
8515;BME280;4295;51.024;7.000;2023-01-10T13:03:28;140651.09;;;-16.36;100.00
8515;BME280;4295;51.024;7.000;2023-01-10T13:05:55;140653.59;;;-16.35;100.00
8515;BME280;4295;51.024;7.000;2023-01-10T13:08:25;140649.84;;;-16.37;100.00
8515;BME280;4295;51.024;7.000;2023-01-10T13:10:53;140659.81;;;-16.33;100.00
8515;BME280;4295;51.024;7.000;2023-01-10T13:13:35;140656.03;;;-16.34;100.00
8515;BME280;4295;51.024;7.000;2023-01-10T13:18:30;140658.53;;;-16.33;100.00
8515;BME280;4295;51.024;7.000;2023-01-10T13:21:04;140667.25;;;-16.30;100.00
8515;BME280;4295;51.024;7.000;2023-01-10T13:23:37;140642.38;;;-16.40;100.00
8515;BME280;4295;51.024;7.000;2023-01-10T13:26:08;140636.16;;;-16.42;100.00
8515;BME280;4295;51.024;7.000;2023-01-10T13:28:39;140652.34;;;-16.36;100.00
8515;BME280;4295;51.024;7.000;2023-01-10T13:31:22;140672.22;;;-16.28;100.00
8515;BME280;4295;51.024;7.000;2023-01-10T13:33:55;140669.72;;;-16.29;100.00
8515;BME280;4295;51.024;7.000;2023-01-10T13:36:35;140628.69;;;-16.45;100.00
8515;BME280;4295;51.024;7.000;2023-01-10T13:39:03;140623.75;;;-16.47;100.00
8515;BME280;4295;51.024;7.000;2023-01-10T13:52:47;140625.00;;;-16.47;100.00
8515;BME280;4295;51.024;7.000;2023-01-10T13:55:33;140591.44;;;-16.61;100.00
8515;BME280;4295;51.024;7.000;2023-01-10T14:01:23;140546.72;;;-16.79;100.00
8515;BME280;4295;51.024;7.000;2023-01-10T14:04:29;140567.84;;;-16.70;100.00
8515;BME280;4295;51.024;7.000;2023-01-10T14:07:00;140546.72;;;-16.79;100.00
8515;BME280;4295;51.024;7.000;2023-01-10T14:11:57;140531.81;;;-16.85;100.00
8515;BME280;4295;51.024;7.000;2023-01-10T14:14:30;140547.94;;;-16.78;100.00
8515;BME280;4295;51.024;7.000;2023-01-10T14:17:20;140520.59;;;-16.89;100.00
8515;BME280;4295;51.024;7.000;2023-01-10T14:22:33;140520.59;;;-16.89;100.00
8515;BME280;4295;51.024;7.000;2023-01-10T14:25:00;140515.63;;;-16.91;100.00
8515;BME280;4295;51.024;7.000;2023-01-10T14:27:43;140508.19;;;-16.94;100.00
8515;BME280;4295;51.024;7.000;2023-01-10T14:33:00;140485.81;;;-17.03;100.00
8515;BME280;4295;51.024;7.000;2023-01-10T14:35:32;140501.97;;;-16.97;100.00
8515;BME280;4295;51.024;7.000;2023-01-10T14:38:00;140480.84;;;-17.05;100.00
8515;BME280;4295;51.024;7.000;2023-01-10T14:40:39;140489.50;;;-17.02;100.00
8515;BME280;4295;51.024;7.000;2023-01-10T14:43:14;140479.59;;;-17.06;100.00
8515;BME280;4295;51.024;7.000;2023-01-10T14:45:54;140457.22;;;-17.15;100.00
8515;BME280;4295;51.024;7.000;2023-01-10T14:48:30;140436.13;;;-17.24;100.00
8515;BME280;4295;51.024;7.000;2023-01-10T14:53:31;140447.28;;;-17.19;100.00
8515;BME280;4295;51.024;7.000;2023-01-10T14:55:57;140433.63;;;-17.25;100.00
8515;BME280;4295;51.024;7.000;2023-01-10T14:58:23;140437.38;;;-17.23;100.00
8515;BME280;4295;51.024;7.000;2023-01-10T15:00:50;140434.88;;;-17.24;100.00